createdAt,value
2022-11-13T05:30:54.532Z,17.90
2022-11-13T05:31:54.484Z,19.70
2022-11-13T05:32:54.517Z,16.90
2022-11-13T05:33:54.475Z,16.40
2022-11-13T05:34:54.445Z,17.30
2022-11-13T05:35:54.451Z,20.80
2022-11-13T05:36:54.422Z,15.40
2022-11-13T05:37:54.400Z,18.90
2022-11-13T05:38:54.411Z,15.40
2022-11-13T05:39:54.421Z,16.80
2022-11-13T05:40:54.380Z,16.50
2022-11-13T05:41:54.390Z,15.40
2022-11-13T05:42:54.392Z,17.50
2022-11-13T05:43:59.190Z,15.40
2022-11-13T05:44:55.342Z,18.00
2022-11-13T05:46:01.374Z,17.60
2022-11-13T05:46:54.297Z,17.60
2022-11-13T05:47:54.305Z,18.00
2022-11-13T05:48:54.263Z,16.00
2022-11-13T05:49:54.243Z,14.90
2022-11-13T05:50:54.273Z,21.60
2022-11-13T05:51:54.221Z,18.30
2022-11-13T05:52:54.223Z,16.30
2022-11-13T05:53:54.194Z,16.30
2022-11-13T05:54:54.182Z,16.70
2022-11-13T05:55:54.223Z,16.50
2022-11-13T05:56:54.175Z,16.00
2022-11-13T05:57:54.143Z,15.70
2022-11-13T05:58:54.132Z,16.60
2022-11-13T05:59:54.113Z,20.70
2022-11-13T06:00:54.191Z,17.60
2022-11-13T06:01:54.132Z,17.80
2022-11-13T06:02:54.081Z,17.50
2022-11-13T06:03:54.061Z,18.40
2022-11-13T06:04:56.555Z,19.80
2022-11-13T06:05:54.041Z,17.50
2022-11-13T06:06:54.073Z,16.50
2022-11-13T06:07:54.091Z,17.80
2022-11-13T06:08:54.013Z,19.80
2022-11-13T06:09:53.989Z,16.00
2022-11-13T06:10:54.002Z,19.80
2022-11-13T06:11:53.961Z,18.60
2022-11-13T06:12:53.948Z,16.30
2022-11-13T06:13:53.930Z,18.20
2022-11-13T06:14:53.990Z,16.90
2022-11-13T06:15:53.918Z,19.20
2022-11-13T06:16:53.898Z,18.20
2022-11-13T06:17:53.885Z,22.00
2022-11-13T06:18:53.867Z,16.30
2022-11-13T06:19:53.857Z,16.10
2022-11-13T06:20:53.877Z,19.00
2022-11-13T06:21:53.836Z,16.50
2022-11-13T06:22:53.826Z,16.70
2022-11-13T06:23:53.796Z,15.80
2022-11-13T06:24:53.816Z,16.60
2022-11-13T06:25:53.776Z,16.60
2022-11-13T06:26:53.786Z,16.20
2022-11-13T06:27:53.746Z,17.30
2022-11-13T06:28:53.745Z,14.80
2022-11-13T06:29:53.726Z,17.30
2022-11-13T06:30:53.742Z,16.00
2022-11-13T06:31:53.696Z,14.90
2022-11-13T06:32:53.686Z,19.30
2022-11-13T06:33:53.674Z,20.50
2022-11-13T06:34:53.666Z,16.30
2022-11-13T06:35:53.645Z,17.10
2022-11-13T06:36:53.713Z,17.90
2022-11-13T06:37:53.623Z,16.00
2022-11-13T06:38:53.646Z,19.00
2022-11-13T06:39:53.602Z,17.10
2022-11-13T06:40:53.608Z,18.30
2022-11-13T06:41:53.580Z,27.80
2022-11-13T06:42:53.561Z,33.60
2022-11-13T06:43:53.560Z,30.30
2022-11-13T06:44:53.533Z,24.30
2022-11-13T06:45:53.523Z,23.60
2022-11-13T06:46:53.521Z,23.20
2022-11-13T06:47:53.491Z,20.30
2022-11-13T06:48:53.487Z,17.00
2022-11-13T06:49:53.461Z,14.20
2022-11-13T06:50:53.459Z,14.10
2022-11-13T06:51:53.451Z,11.70
2022-11-13T06:52:53.439Z,11.70
2022-11-13T06:53:53.420Z,13.90
2022-11-13T06:54:53.415Z,10.10
2022-11-13T06:55:53.388Z,13.00
2022-11-13T06:56:53.393Z,10.00
2022-11-13T06:57:53.360Z,10.40
2022-11-13T06:58:53.350Z,10.30
2022-11-13T06:59:53.341Z,12.90
2022-11-13T07:00:53.346Z,10.10
2022-11-13T07:01:53.319Z,11.90
2022-11-13T07:02:53.308Z,9.70
2022-11-13T07:03:53.303Z,11.20
2022-11-13T07:04:53.270Z,13.60
2022-11-13T07:05:53.257Z,12.10
2022-11-13T07:06:53.286Z,11.80
2022-11-13T07:07:53.230Z,12.70
2022-11-13T07:08:53.218Z,11.30
2022-11-13T07:09:53.209Z,12.80
2022-11-13T07:10:53.221Z,11.00
2022-11-13T07:11:53.177Z,12.40
2022-11-13T07:12:54.806Z,12.00
2022-11-13T07:13:53.157Z,8.60
2022-11-13T07:14:53.147Z,10.10
2022-11-13T07:15:53.136Z,9.90
2022-11-13T07:17:10.310Z,10.30
2022-11-13T07:17:54.115Z,7.80
2022-11-13T07:18:53.097Z,9.50
2022-11-13T07:19:53.075Z,9.10
2022-11-13T07:20:53.087Z,10.70
2022-11-13T07:21:53.053Z,10.20
2022-11-13T07:22:53.036Z,9.80
2022-11-13T07:23:53.039Z,10.80
2022-11-13T07:24:53.015Z,7.80
2022-11-13T07:25:52.996Z,9.30
2022-11-13T07:26:53.036Z,9.10
2022-11-13T07:27:52.974Z,10.70
2022-11-13T07:28:52.962Z,8.20
2022-11-13T07:29:52.965Z,10.70
2022-11-13T07:30:52.944Z,12.20
2022-11-13T07:31:52.924Z,10.30
2022-11-13T07:32:52.906Z,9.60
2022-11-13T07:33:52.895Z,10.40
2022-11-13T07:34:52.903Z,9.50
2022-11-13T07:35:52.882Z,10.50
2022-11-13T07:36:52.908Z,10.30
2022-11-13T07:37:52.846Z,10.60
2022-11-13T07:38:55.594Z,11.20
2022-11-13T07:39:53.820Z,13.20
2022-11-13T07:40:52.834Z,9.30
2022-11-13T07:41:52.794Z,10.40
2022-11-13T07:42:52.782Z,11.70
2022-11-13T07:43:52.768Z,8.20
2022-11-13T07:44:55.191Z,10.70
2022-11-13T07:45:52.732Z,10.00
2022-11-13T07:46:52.742Z,7.20
2022-11-13T07:47:52.711Z,9.20
2022-11-13T07:48:52.711Z,9.90
2022-11-13T07:49:55.375Z,8.70
2022-11-13T07:50:53.671Z,8.60
2022-11-13T07:51:52.679Z,9.50
2022-11-13T07:52:52.660Z,9.10
2022-11-13T07:53:52.643Z,7.80
2022-11-13T07:54:52.630Z,8.90
2022-11-13T07:55:52.599Z,14.20
2022-11-13T07:56:52.608Z,9.00
2022-11-13T07:57:52.589Z,10.00
2022-11-13T07:58:52.560Z,12.00
2022-11-13T07:59:52.559Z,10.50
2022-11-13T08:00:52.597Z,11.10
2022-11-13T08:01:52.607Z,10.20
2022-11-13T08:02:52.520Z,12.20
2022-11-13T08:03:52.550Z,10.60
2022-11-13T08:04:52.493Z,13.30
2022-11-13T08:05:52.487Z,11.50
2022-11-13T08:06:52.557Z,10.10
2022-11-13T08:07:52.446Z,7.90
2022-11-13T08:08:52.428Z,10.20
2022-11-13T08:09:52.419Z,12.30
2022-11-13T08:10:52.406Z,10.30
2022-11-13T08:11:52.397Z,10.00
2022-11-13T08:12:52.401Z,9.80
2022-11-13T08:13:52.367Z,9.10
2022-11-13T08:14:52.403Z,8.60
2022-11-13T08:15:52.337Z,10.00
2022-11-13T08:16:52.337Z,10.20
2022-11-13T08:17:52.307Z,9.60
2022-11-13T08:18:52.316Z,9.50
2022-11-13T08:19:52.300Z,12.50
2022-11-13T08:20:52.292Z,10.00
2022-11-13T08:21:52.278Z,8.50
2022-11-13T08:22:52.258Z,10.70
2022-11-13T08:23:52.235Z,10.20
2022-11-13T08:24:52.216Z,10.80
2022-11-13T08:25:52.205Z,11.40
2022-11-13T08:26:52.207Z,10.90
2022-11-13T08:27:52.176Z,9.00
2022-11-13T08:28:52.175Z,10.50
2022-11-13T08:29:52.154Z,10.00
2022-11-13T08:30:52.185Z,10.00
2022-11-13T08:31:52.133Z,8.00
2022-11-13T08:32:52.117Z,8.90
2022-11-13T08:33:52.115Z,8.10
2022-11-13T08:34:52.084Z,8.40
2022-11-13T08:35:52.094Z,11.00
2022-11-13T08:36:52.055Z,9.70
2022-11-13T08:37:52.044Z,8.70
2022-11-13T08:38:52.035Z,7.60
2022-11-13T08:39:52.027Z,9.10
2022-11-13T08:40:52.004Z,9.40
2022-11-13T08:41:52.017Z,9.40
2022-11-13T08:42:51.984Z,7.80
2022-11-13T08:43:51.977Z,8.90
2022-11-13T08:44:51.953Z,8.50
2022-11-13T08:45:51.944Z,9.70
2022-11-13T08:46:51.944Z,7.50
2022-11-13T08:47:51.913Z,8.70
2022-11-13T08:48:51.903Z,7.50
2022-11-13T08:49:51.892Z,7.20
2022-11-13T08:50:51.881Z,8.20
2022-11-13T08:51:51.873Z,8.40
2022-11-13T08:52:51.852Z,8.40
2022-11-13T08:53:51.834Z,8.40
2022-11-13T08:54:51.827Z,10.90
2022-11-13T08:55:51.823Z,7.30
2022-11-13T08:56:56.223Z,8.40
2022-11-13T08:57:52.781Z,7.30
2022-11-13T08:58:51.771Z,7.00
2022-11-13T08:59:51.751Z,5.90
2022-11-13T09:00:51.742Z,7.70
2022-11-13T09:01:51.741Z,6.70
2022-11-13T09:02:51.722Z,7.20
2022-11-13T09:03:51.758Z,8.10
2022-11-13T09:04:51.692Z,7.50
2022-11-13T09:05:51.680Z,7.60
2022-11-13T09:06:51.724Z,6.50
2022-11-13T09:07:51.641Z,7.70
2022-11-13T09:08:51.643Z,5.50
2022-11-13T09:09:51.621Z,9.00
2022-11-13T09:10:51.613Z,6.50
2022-11-13T09:11:51.601Z,6.80
2022-11-13T09:12:51.591Z,6.20
2022-11-13T09:13:53.527Z,7.00
2022-11-13T09:14:51.562Z,6.70
2022-11-13T09:15:51.553Z,6.30
2022-11-13T09:16:51.549Z,7.40
2022-11-13T09:17:51.546Z,6.10
2022-11-13T09:18:51.543Z,7.00
2022-11-13T09:19:51.501Z,7.10
2022-11-13T09:20:51.482Z,7.00
2022-11-13T09:21:51.492Z,7.80
2022-11-13T09:22:51.478Z,6.10
2022-11-13T09:23:51.441Z,5.80
2022-11-13T09:24:51.450Z,7.20
2022-11-13T09:25:51.414Z,6.80
2022-11-13T09:26:51.409Z,6.50
2022-11-13T09:27:51.382Z,6.20
2022-11-13T09:28:51.372Z,5.90
2022-11-13T09:29:55.403Z,5.80
2022-11-13T09:30:51.351Z,6.30
2022-11-13T09:31:51.340Z,6.00
2022-11-13T09:32:51.330Z,7.40
2022-11-13T09:33:51.309Z,6.90
2022-11-13T09:34:51.291Z,7.30
2022-11-13T09:35:51.280Z,7.50
2022-11-13T09:36:51.290Z,5.90
2022-11-13T09:37:51.252Z,7.00
2022-11-13T09:38:51.252Z,5.80
2022-11-13T09:39:51.231Z,4.90
2022-11-13T09:40:51.213Z,5.10
2022-11-13T09:41:51.195Z,5.60
2022-11-13T09:42:51.204Z,5.90
2022-11-13T09:43:55.223Z,6.10
2022-11-13T09:44:52.161Z,5.30
2022-11-13T09:45:51.157Z,5.00
2022-11-13T09:46:51.139Z,5.80
2022-11-13T09:47:51.131Z,7.40
2022-11-13T09:48:51.111Z,5.20
2022-11-13T09:49:51.092Z,6.00
2022-11-13T09:50:51.082Z,7.10
2022-11-13T09:51:51.064Z,5.30
2022-11-13T09:52:51.062Z,5.70
2022-11-13T09:53:51.041Z,6.20
2022-11-13T09:54:51.031Z,4.90
2022-11-13T09:55:51.035Z,5.60
2022-11-13T09:56:51.012Z,6.60
2022-11-13T09:57:51.003Z,5.90
2022-11-13T09:58:50.971Z,6.20
2022-11-13T09:59:50.965Z,5.00
2022-11-13T10:00:51.000Z,5.90
2022-11-13T10:01:50.933Z,6.30
2022-11-13T10:02:50.933Z,7.30
2022-11-13T10:04:06.955Z,8.10
2022-11-13T10:04:51.894Z,5.40
2022-11-13T10:05:50.883Z,5.10
2022-11-13T10:06:50.895Z,7.10
2022-11-13T10:07:50.883Z,5.70
2022-11-13T10:08:50.844Z,5.00
2022-11-13T10:09:50.844Z,4.90
2022-11-13T10:10:55.461Z,5.30
2022-11-13T10:11:51.795Z,5.00
2022-11-13T10:12:50.803Z,3.70
2022-11-13T10:13:50.775Z,5.40
2022-11-13T10:14:50.763Z,5.40
2022-11-13T10:15:50.744Z,4.80
2022-11-13T10:16:50.744Z,6.00
2022-11-13T10:17:50.734Z,5.70
2022-11-13T10:18:50.744Z,5.20
2022-11-13T10:19:50.694Z,4.80
2022-11-13T10:20:50.702Z,4.60
2022-11-13T10:21:54.825Z,4.30
2022-11-13T10:22:51.703Z,9.20
2022-11-13T10:23:50.704Z,5.40
2022-11-13T10:24:50.642Z,6.40
2022-11-13T10:25:50.615Z,6.40
2022-11-13T10:26:50.626Z,4.60
2022-11-13T10:27:50.665Z,6.50
2022-11-13T10:28:51.636Z,7.40
2022-11-13T10:29:50.773Z,5.00
2022-11-13T10:30:50.566Z,7.10
2022-11-13T10:31:50.544Z,4.90
2022-11-13T10:32:50.574Z,5.60
2022-11-13T10:33:50.515Z,4.50
2022-11-13T10:34:50.523Z,4.80
2022-11-13T10:35:50.486Z,5.00
2022-11-13T10:36:50.496Z,8.10
2022-11-13T10:37:50.475Z,6.70
2022-11-13T10:38:50.467Z,4.50
2022-11-13T10:39:50.445Z,4.90
2022-11-13T10:40:50.434Z,4.80
2022-11-13T10:41:50.410Z,5.60
2022-11-13T10:42:50.447Z,7.00
2022-11-13T10:43:50.385Z,4.80
2022-11-13T10:44:50.377Z,4.20
2022-11-13T10:45:50.356Z,6.60
2022-11-13T10:46:50.397Z,8.30
2022-11-13T10:48:03.859Z,4.50
2022-11-13T10:48:51.318Z,3.50
2022-11-13T10:49:50.308Z,5.40
2022-11-13T10:50:50.318Z,4.90
2022-11-13T10:51:50.279Z,3.70
2022-11-13T10:52:50.319Z,2.80
2022-11-13T10:53:50.380Z,4.40
2022-11-13T10:54:50.519Z,5.50
2022-11-13T10:55:50.266Z,4.40
2022-11-13T10:56:50.217Z,4.40
2022-11-13T10:57:53.890Z,3.40
2022-11-13T10:58:51.197Z,4.30
2022-11-13T10:59:50.209Z,5.60
2022-11-13T11:00:50.252Z,3.90
2022-11-13T11:01:50.149Z,5.50
2022-11-13T11:02:50.177Z,5.30
2022-11-13T11:03:50.230Z,3.20
2022-11-13T11:04:50.213Z,4.40
2022-11-13T11:05:50.099Z,4.80
2022-11-13T11:07:18.572Z,4.90
2022-11-13T11:07:51.144Z,3.80
2022-11-13T11:08:50.147Z,4.70
2022-11-13T11:09:50.051Z,3.50
2022-11-13T11:10:50.171Z,3.70
2022-11-13T11:11:50.039Z,3.70
2022-11-13T11:12:50.109Z,4.30
2022-11-13T11:13:50.008Z,5.50
2022-11-13T11:14:50.011Z,2.80
2022-11-13T11:15:49.971Z,4.60
2022-11-13T11:16:49.971Z,4.20
2022-11-13T11:17:49.956Z,3.10
2022-11-13T11:18:49.954Z,5.20
2022-11-13T11:19:49.924Z,3.70
2022-11-13T11:20:49.916Z,3.60
2022-11-13T11:21:49.915Z,3.30
2022-11-13T11:22:49.898Z,3.30
2022-11-13T11:23:54.706Z,2.70
2022-11-13T11:24:50.871Z,3.10
2022-11-13T11:25:49.853Z,4.60
2022-11-13T11:26:49.843Z,3.70
2022-11-13T11:27:49.822Z,3.20
2022-11-13T11:28:49.834Z,3.20
2022-11-13T11:29:49.802Z,3.60
2022-11-13T11:30:49.794Z,4.20
2022-11-13T11:31:49.787Z,4.40
2022-11-13T11:32:49.773Z,3.00
2022-11-13T11:33:49.763Z,3.20
2022-11-13T11:34:51.700Z,3.20
2022-11-13T11:35:49.744Z,3.20
2022-11-13T11:36:49.714Z,5.20
2022-11-13T11:37:49.694Z,5.40
2022-11-13T11:38:49.695Z,5.30
2022-11-13T11:39:49.675Z,6.40
2022-11-13T11:40:49.670Z,4.10
2022-11-13T11:41:49.653Z,6.10
2022-11-13T11:42:49.645Z,3.50
2022-11-13T11:43:49.640Z,4.80
2022-11-13T11:44:49.678Z,5.40
2022-11-13T11:45:49.603Z,3.90
2022-11-13T11:46:56.645Z,4.40
2022-11-13T11:47:50.583Z,4.10
2022-11-13T11:48:49.563Z,3.80
2022-11-13T11:49:49.563Z,4.10
2022-11-13T11:50:49.543Z,3.80
2022-11-13T11:51:49.534Z,5.00
2022-11-13T11:52:49.513Z,3.20
2022-11-13T11:53:49.523Z,3.40
2022-11-13T11:54:49.503Z,3.60
2022-11-13T11:55:49.485Z,4.00
2022-11-13T11:56:49.464Z,6.30
2022-11-13T11:57:49.464Z,3.80
2022-11-13T11:58:49.454Z,3.00
2022-11-13T11:59:49.435Z,4.60
2022-11-13T12:00:49.425Z,5.10
2022-11-13T12:01:49.405Z,2.80
2022-11-13T12:02:49.395Z,3.30
2022-11-13T12:03:49.399Z,2.30
2022-11-13T12:04:49.411Z,3.40
2022-11-13T12:05:49.375Z,3.70
2022-11-13T12:06:49.416Z,4.10
2022-11-13T12:07:49.343Z,4.10
2022-11-13T12:08:49.335Z,3.50
2022-11-13T12:09:49.315Z,2.60
2022-11-13T12:10:49.304Z,2.80
2022-11-13T12:11:49.297Z,2.50
2022-11-13T12:12:49.279Z,2.40
2022-11-13T12:13:49.284Z,5.50
2022-11-13T12:14:49.257Z,3.10
2022-11-13T12:15:49.255Z,3.70
2022-11-13T12:16:49.241Z,3.40
2022-11-13T12:17:49.228Z,3.40
2022-11-13T12:18:49.217Z,3.00
2022-11-13T12:19:49.208Z,3.40
2022-11-13T12:20:49.187Z,3.20
2022-11-13T12:21:49.179Z,3.70
2022-11-13T12:22:49.166Z,5.30
2022-11-13T12:23:49.160Z,4.10
2022-11-13T12:24:49.138Z,3.90
2022-11-13T12:25:49.132Z,2.90
2022-11-13T12:26:49.119Z,2.90
2022-11-13T12:27:49.099Z,2.80
2022-11-13T12:28:49.100Z,3.60
2022-11-13T12:29:49.079Z,3.20
2022-11-13T12:30:49.078Z,4.60
2022-11-13T12:31:49.058Z,2.50
2022-11-13T12:32:49.030Z,3.40
2022-11-13T12:33:49.040Z,5.00
2022-11-13T12:34:49.009Z,3.30
2022-11-13T12:35:49.001Z,2.60
2022-11-13T12:36:48.982Z,4.00
2022-11-13T12:37:48.969Z,3.60
2022-11-13T12:38:48.980Z,3.80
2022-11-13T12:39:48.951Z,4.80
2022-11-13T12:40:48.932Z,4.20
2022-11-13T12:41:48.920Z,3.50
2022-11-13T12:42:48.909Z,5.20
2022-11-13T12:43:48.901Z,3.10
2022-11-13T12:44:48.891Z,2.90
2022-11-13T12:45:48.860Z,4.60
2022-11-13T12:46:48.851Z,2.80
2022-11-13T12:47:48.842Z,5.40
2022-11-13T12:48:48.830Z,3.70
2022-11-13T12:49:48.831Z,3.40
2022-11-13T12:50:48.805Z,2.50
2022-11-13T12:51:48.790Z,3.00
2022-11-13T12:52:48.780Z,2.90
2022-11-13T12:53:48.763Z,3.90
2022-11-13T12:54:48.771Z,3.20
2022-11-13T12:55:48.731Z,2.80
2022-11-13T12:56:48.721Z,3.00
2022-11-13T12:57:48.709Z,2.80
2022-11-13T12:59:09.267Z,3.50
2022-11-13T12:59:49.708Z,4.40
2022-11-13T13:00:48.671Z,4.00
2022-11-13T13:01:48.757Z,5.10
2022-11-13T13:02:48.641Z,2.80
2022-11-13T13:03:48.671Z,4.40
2022-11-13T13:04:48.630Z,4.90
2022-11-13T13:05:48.630Z,5.00
2022-11-13T13:06:48.636Z,3.90
2022-11-13T13:07:48.579Z,2.90
2022-11-13T13:08:48.600Z,5.20
2022-11-13T13:09:48.583Z,4.50
2022-11-13T13:10:48.552Z,5.60
2022-11-13T13:11:48.545Z,6.10
2022-11-13T13:12:48.520Z,3.00
2022-11-13T13:13:48.501Z,2.60
2022-11-13T13:14:48.530Z,3.60
2022-11-13T13:15:48.479Z,4.40
2022-11-13T13:16:48.469Z,3.60
2022-11-13T13:17:48.450Z,3.40
2022-11-13T13:18:48.439Z,3.10
2022-11-13T13:19:48.430Z,2.70
2022-11-13T13:20:48.459Z,3.40
2022-11-13T13:21:48.389Z,4.40
2022-11-13T13:22:48.414Z,2.40
2022-11-13T13:23:48.397Z,5.70
2022-11-13T13:24:48.392Z,2.50
2022-11-13T13:25:48.340Z,2.60
2022-11-13T13:26:48.337Z,4.30
2022-11-13T13:27:48.358Z,2.70
2022-11-13T13:28:48.321Z,2.30
2022-11-13T13:29:48.299Z,2.60
2022-11-13T13:30:48.293Z,4.00
2022-11-13T13:31:48.260Z,3.20
2022-11-13T13:32:48.263Z,3.20
2022-11-13T13:33:48.241Z,2.20
2022-11-13T13:34:48.233Z,3.90
2022-11-13T13:35:48.313Z,2.80
2022-11-13T13:36:48.260Z,2.20
2022-11-13T13:37:48.181Z,3.10
2022-11-13T13:38:52.315Z,5.40
2022-11-13T13:39:48.160Z,3.50
2022-11-13T13:40:48.151Z,5.00
2022-11-13T13:41:48.120Z,3.20
2022-11-13T13:42:48.119Z,4.40
2022-11-13T13:43:48.098Z,3.20
2022-11-13T13:44:48.111Z,2.40
2022-11-13T13:45:48.071Z,2.40
2022-11-13T13:46:48.081Z,3.10
2022-11-13T13:47:48.179Z,2.80
2022-11-13T13:48:48.043Z,3.90
2022-11-13T13:49:48.037Z,3.30
2022-11-13T13:50:48.018Z,3.30
2022-11-13T13:51:47.997Z,2.70
2022-11-13T13:52:52.662Z,3.80
2022-11-13T13:53:48.962Z,3.10
2022-11-13T13:54:47.972Z,2.40
2022-11-13T13:55:47.939Z,3.20
2022-11-13T13:56:47.936Z,3.60
2022-11-13T13:57:47.909Z,2.20
2022-11-13T13:58:47.899Z,5.30
2022-11-13T13:59:47.901Z,2.20
2022-11-13T14:01:11.954Z,3.40
2022-11-13T14:01:48.949Z,4.40
2022-11-13T14:02:47.868Z,3.50
2022-11-13T14:03:47.839Z,3.00
2022-11-13T14:04:47.846Z,3.10
2022-11-13T14:05:47.810Z,3.80
2022-11-13T14:06:47.916Z,5.60
2022-11-13T14:07:47.798Z,5.80
2022-11-13T14:08:47.778Z,5.80
2022-11-13T14:09:47.772Z,4.20
2022-11-13T14:10:47.748Z,7.10
2022-11-13T14:11:47.728Z,7.60
2022-11-13T14:12:47.728Z,6.70
2022-11-13T14:13:47.698Z,10.70
2022-11-13T14:14:47.709Z,7.00
2022-11-13T14:15:47.679Z,8.30
2022-11-13T14:16:47.667Z,7.80
2022-11-13T14:17:47.650Z,7.60
2022-11-13T14:18:47.642Z,12.00
2022-11-13T14:19:47.638Z,5.60
2022-11-13T14:20:47.636Z,5.20
2022-11-13T14:21:47.599Z,5.50
2022-11-13T14:22:50.407Z,5.20
2022-11-13T14:23:48.601Z,4.40
2022-11-13T14:24:47.612Z,5.10
2022-11-13T14:25:47.538Z,4.30
2022-11-13T14:26:47.528Z,4.80
2022-11-13T14:27:47.522Z,3.60
2022-11-13T14:28:52.287Z,3.50
2022-11-13T14:29:48.510Z,4.10
2022-11-13T14:30:47.500Z,5.30
2022-11-13T14:31:47.458Z,3.20
2022-11-13T14:32:47.541Z,3.40
2022-11-13T14:33:47.457Z,5.10
2022-11-13T14:34:47.487Z,4.10
2022-11-13T14:35:47.409Z,3.30
2022-11-13T14:36:47.400Z,5.40
2022-11-13T14:37:47.385Z,3.60
2022-11-13T14:38:51.866Z,3.20
2022-11-13T14:39:48.398Z,2.90
2022-11-13T14:40:47.408Z,4.70
2022-11-13T14:41:47.339Z,4.90
2022-11-13T14:42:47.329Z,2.70
2022-11-13T14:43:47.299Z,3.00
2022-11-13T14:44:47.328Z,2.40
2022-11-13T14:45:47.307Z,2.30
2022-11-13T14:46:47.281Z,2.50
2022-11-13T14:47:47.262Z,2.50
2022-11-13T14:48:47.258Z,2.90
2022-11-13T14:49:47.248Z,3.50
2022-11-13T14:50:47.251Z,11.20
2022-11-13T14:51:47.207Z,10.70
2022-11-13T14:52:47.197Z,7.60
2022-11-13T14:53:47.187Z,7.30
2022-11-13T14:55:13.542Z,7.00
2022-11-13T14:55:48.288Z,7.50
2022-11-13T14:56:47.294Z,4.70
2022-11-13T14:57:47.144Z,6.00
2022-11-13T14:58:47.168Z,2.90
2022-11-13T14:59:47.119Z,3.50
2022-11-13T15:00:47.097Z,2.80
2022-11-13T15:01:47.087Z,3.00
2022-11-13T15:02:47.043Z,3.60
2022-11-13T15:03:47.148Z,3.60
2022-11-13T15:04:47.051Z,2.30
2022-11-13T15:05:47.009Z,2.40
2022-11-13T15:06:47.053Z,2.90
2022-11-13T15:07:47.020Z,2.70
2022-11-13T15:08:46.969Z,2.30
2022-11-13T15:09:46.988Z,3.30
2022-11-13T15:10:46.963Z,2.10
2022-11-13T15:11:46.958Z,4.50
2022-11-13T15:12:46.909Z,2.00
2022-11-13T15:13:46.900Z,2.20
2022-11-13T15:14:46.898Z,1.90
2022-11-13T15:15:46.883Z,2.60
2022-11-13T15:16:46.997Z,3.90
2022-11-13T15:17:46.855Z,2.00
2022-11-13T15:18:46.838Z,3.50
2022-11-13T15:19:46.836Z,2.70
2022-11-13T15:20:46.810Z,1.80
2022-11-13T15:22:05.646Z,2.30
2022-11-13T15:22:47.794Z,2.60
2022-11-13T15:23:46.777Z,2.50
2022-11-13T15:24:46.783Z,5.10
2022-11-13T15:25:46.749Z,2.40
2022-11-13T15:26:46.774Z,3.90
2022-11-13T15:27:46.730Z,2.80
2022-11-13T15:28:46.706Z,3.20
2022-11-13T15:29:46.707Z,2.30
2022-11-13T15:30:46.680Z,2.80
2022-11-13T15:31:46.666Z,2.80
2022-11-13T15:32:46.657Z,3.20
2022-11-13T15:33:46.636Z,3.20
2022-11-13T15:34:46.626Z,3.50
2022-11-13T15:35:46.617Z,2.70
2022-11-13T15:36:46.623Z,4.50
2022-11-13T15:37:46.586Z,2.70
2022-11-13T15:38:46.566Z,3.20
2022-11-13T15:39:46.575Z,4.50
2022-11-13T15:40:46.547Z,3.20
2022-11-13T15:41:46.535Z,4.40
2022-11-13T15:42:46.566Z,3.20
2022-11-13T15:43:46.505Z,5.10
2022-11-13T15:44:46.509Z,5.20
2022-11-13T15:45:46.476Z,4.40
2022-11-13T15:46:46.466Z,8.80
2022-11-13T15:47:46.464Z,8.50
2022-11-13T15:48:46.512Z,5.60
2022-11-13T15:50:09.743Z,11.80
2022-11-13T15:50:47.405Z,12.80
2022-11-13T15:51:46.417Z,14.50
2022-11-13T15:52:46.383Z,9.00
2022-11-13T15:53:46.384Z,8.10
2022-11-13T15:54:46.374Z,8.90
2022-11-13T15:55:46.344Z,7.90
2022-11-13T15:56:46.337Z,7.30
2022-11-13T15:57:46.374Z,5.90
2022-11-13T15:58:46.336Z,6.00
2022-11-13T15:59:46.327Z,6.50
2022-11-13T16:00:46.282Z,5.20
2022-11-13T16:01:46.323Z,8.50
2022-11-13T16:02:46.256Z,6.20
2022-11-13T16:03:46.256Z,5.20
2022-11-13T16:04:56.073Z,3.70
2022-11-13T16:05:47.215Z,3.30
2022-11-13T16:06:46.259Z,4.10
2022-11-13T16:07:46.187Z,3.40
2022-11-13T16:08:46.188Z,3.50
2022-11-13T16:09:46.174Z,6.10
2022-11-13T16:10:46.155Z,5.10
2022-11-13T16:11:46.135Z,4.50
2022-11-13T16:12:46.143Z,6.30
2022-11-13T16:13:46.127Z,8.90
2022-11-13T16:14:46.114Z,11.80
2022-11-13T16:15:46.083Z,12.20
2022-11-13T16:16:46.063Z,17.00
2022-11-13T16:17:46.064Z,17.10
2022-11-13T16:18:46.106Z,19.50
2022-11-13T16:19:46.042Z,23.00
2022-11-13T16:20:46.024Z,22.90
2022-11-13T16:21:46.002Z,23.40
2022-11-13T16:22:45.986Z,13.40
2022-11-13T16:23:45.982Z,11.00
2022-11-13T16:24:45.972Z,13.70
2022-11-13T16:25:45.953Z,15.10
2022-11-13T16:26:45.941Z,10.70
2022-11-13T16:27:45.923Z,12.60
2022-11-13T16:29:12.254Z,9.90
2022-11-13T16:29:46.924Z,11.90
2022-11-13T16:30:45.881Z,8.20
2022-11-13T16:31:45.875Z,11.00
2022-11-13T16:32:45.857Z,7.00
2022-11-13T16:33:45.840Z,5.70
2022-11-13T16:34:45.829Z,8.00
2022-11-13T16:35:45.839Z,7.10
2022-11-13T16:36:45.800Z,6.90
2022-11-13T16:37:45.798Z,6.00
2022-11-13T16:38:45.771Z,6.20
2022-11-13T16:39:45.759Z,7.20
2022-11-13T16:40:45.751Z,5.70
2022-11-13T16:41:45.748Z,5.50
2022-11-13T16:42:45.719Z,4.40
2022-11-13T16:43:45.738Z,5.80
2022-11-13T16:44:45.722Z,4.60
2022-11-13T16:45:45.719Z,4.30
2022-11-13T16:46:45.695Z,6.30
2022-11-13T16:47:45.671Z,6.10
2022-11-13T16:48:45.639Z,6.70
2022-11-13T16:49:45.648Z,7.40
2022-11-13T16:50:45.621Z,6.00
2022-11-13T16:51:45.608Z,4.70
2022-11-13T16:52:45.614Z,5.20
2022-11-13T16:53:45.619Z,6.30
2022-11-13T16:54:45.591Z,3.50
2022-11-13T16:55:45.596Z,3.20
2022-11-13T16:56:45.540Z,3.20
2022-11-13T16:57:45.563Z,5.80
2022-11-13T16:58:45.558Z,3.60
2022-11-13T16:59:45.541Z,3.10
2022-11-13T17:00:45.524Z,3.30
2022-11-13T17:01:45.590Z,4.40
2022-11-13T17:02:45.497Z,4.30
2022-11-13T17:03:45.467Z,3.30
2022-11-13T17:04:45.458Z,2.30
2022-11-13T17:05:45.417Z,3.10
2022-11-13T17:06:45.431Z,3.30
2022-11-13T17:07:45.401Z,3.10
2022-11-13T17:08:45.376Z,4.10
2022-11-13T17:09:45.358Z,2.60
2022-11-13T17:10:45.356Z,5.30
2022-11-13T17:11:45.327Z,2.30
2022-11-13T17:12:45.360Z,3.60
2022-11-13T17:13:45.306Z,3.80
2022-11-13T17:14:45.296Z,4.00
2022-11-13T17:15:45.287Z,3.40
2022-11-13T17:16:45.268Z,4.50
2022-11-13T17:17:45.256Z,3.60
2022-11-13T17:18:45.244Z,8.80
2022-11-13T17:19:45.226Z,6.50
2022-11-13T17:20:45.232Z,6.70
2022-11-13T17:21:45.195Z,5.30
2022-11-13T17:22:45.186Z,4.40
2022-11-13T17:23:45.165Z,7.00
2022-11-13T17:24:45.164Z,4.80
2022-11-13T17:25:45.162Z,8.80
2022-11-13T17:26:45.135Z,4.40
2022-11-13T17:27:45.126Z,4.50
2022-11-13T17:28:45.115Z,5.20
2022-11-13T17:29:45.095Z,5.70
2022-11-13T17:30:45.337Z,8.00
2022-11-13T17:31:45.068Z,7.80
2022-11-13T17:32:45.063Z,6.60
2022-11-13T17:33:45.038Z,7.20
2022-11-13T17:34:45.024Z,7.00
2022-11-13T17:35:45.022Z,7.50
2022-11-13T17:36:45.007Z,8.10
2022-11-13T17:37:44.983Z,8.40
2022-11-13T17:38:44.975Z,6.90
2022-11-13T17:39:44.963Z,7.30
2022-11-13T17:40:44.964Z,7.90
2022-11-13T17:41:44.936Z,7.50
2022-11-13T17:42:44.931Z,6.90
2022-11-13T17:43:44.904Z,6.70
2022-11-13T17:44:44.913Z,5.90
2022-11-13T17:45:44.893Z,5.00
2022-11-13T17:46:44.875Z,6.40
2022-11-13T17:47:51.914Z,7.00
2022-11-13T17:48:44.865Z,5.80
2022-11-13T17:49:44.861Z,6.50
2022-11-13T17:50:44.844Z,7.30
2022-11-13T17:51:44.873Z,6.60
2022-11-13T17:52:44.795Z,7.60
2022-11-13T17:53:44.793Z,8.40
2022-11-13T17:54:44.773Z,13.20
2022-11-13T17:55:44.773Z,10.50
2022-11-13T17:56:44.761Z,9.60
2022-11-13T17:57:44.732Z,10.40
2022-11-13T17:58:44.729Z,10.50
2022-11-13T17:59:44.720Z,9.70
2022-11-13T18:00:44.713Z,8.70
2022-11-13T18:01:44.774Z,7.20
2022-11-13T18:02:44.672Z,6.10
2022-11-13T18:03:44.671Z,6.20
2022-11-13T18:04:44.664Z,4.90
2022-11-13T18:05:44.662Z,6.40
2022-11-13T18:06:44.652Z,5.30
2022-11-13T18:07:44.601Z,6.90
2022-11-13T18:08:44.601Z,4.90
2022-11-13T18:09:44.596Z,4.90
2022-11-13T18:10:44.640Z,7.30
2022-11-13T18:11:44.561Z,8.00
2022-11-13T18:12:44.555Z,5.80
2022-11-13T18:13:44.555Z,5.90
2022-11-13T18:14:44.520Z,7.20
2022-11-13T18:15:44.520Z,5.70
2022-11-13T18:16:44.503Z,6.00
2022-11-13T18:17:44.501Z,5.90
2022-11-13T18:18:44.470Z,5.60
2022-11-13T18:19:44.471Z,5.60
2022-11-13T18:20:44.511Z,7.10
2022-11-13T18:21:44.463Z,7.80
2022-11-13T18:22:44.433Z,5.10
2022-11-13T18:23:44.440Z,5.60
2022-11-13T18:24:44.445Z,6.00
2022-11-13T18:25:44.436Z,6.90
2022-11-13T18:26:44.396Z,7.80
2022-11-13T18:27:44.368Z,6.60
2022-11-13T18:28:44.349Z,5.10
2022-11-13T18:29:44.341Z,5.50
2022-11-13T18:30:44.359Z,5.80
2022-11-13T18:31:44.331Z,6.50
2022-11-13T18:32:44.287Z,5.50
2022-11-13T18:33:44.281Z,6.30
2022-11-13T18:34:44.269Z,6.30
2022-11-13T18:35:44.269Z,8.00
2022-11-13T18:36:44.230Z,5.40
2022-11-13T18:37:44.323Z,5.30
2022-11-13T18:38:44.218Z,6.00
2022-11-13T18:39:44.205Z,7.40
2022-11-13T18:40:44.209Z,6.50
2022-11-13T18:41:44.181Z,7.30
2022-11-13T18:42:44.157Z,6.20